Darya Krishna — VRQT9 — position and weather

sailwx.info

Track history (hours):
 
Tides and Currents Weather Stations Pressure Air Temp Water Temp Dewpoint Dewpoint Depression Visibility Wind Speed Wind Dir Waves Ship Positions

Darya Krishna

Last reported at 2018-Jan-11 10:55 UTC. Time now 2018-Jan-20 05:30 UTC.
Position N 01°17' E 103°22'.
Warning: this ship's position is 8 days out of date.

Length 180 m; draft 8.4 m.

Type: Cargo ship. MMSI: 477045400.

Date/timePositionNaut miles runAvg speedWind from/ knotsBaromVisibWave heightAir tempDewpointWater temp
2018-Jan-11 10:55N 01°17' E 103°22'511.7
2018-Jan-11 10:28N 01°14' E 103°26'611.7
2018-Jan-11 09:58N 01°12' E 103°32'510.9
2018-Jan-11 09:30N 01°11' E 103°37'510.0
2018-Jan-11 09:00N 01°10' E 103°41'5 9.7
2018-Jan-11 08:30N 01°10' E 103°46'611.8
2018-Jan-11 08:00N 01°12' E 103°52'510.2
2018-Jan-11 07:30N 01°14' E 103°56'3 3.9
2018-Jan-11 06:42N 01°17' E 103°58'0 0.0
2018-Jan-11 04:36N 01°17' E 103°58'0 0.0
2018-Jan-11 04:24N 01°17' E 103°58'0 0.1
2018-Jan-11 03:48N 01°17' E 103°58'0 0.2
2018-Jan-11 03:27N 01°17' E 103°58'0 0.2
2018-Jan-11 02:54N 01°17' E 103°58'0 0.0
2018-Jan-11 01:54N 01°17' E 103°58'0 0.0
2018-Jan-10 20:51N 01°17' E 103°58'1 1.8
2018-Jan-10 20:30N 01°16' E 103°58'0 0.5
2018-Jan-10 19:39N 01°16' E 103°58'0 3.4
2018-Jan-10 19:30N 01°16' E 103°58'3 5.6
2018-Jan-10 18:58N 01°16' E 104°01'3 7.1
2018-Jan-10 18:30N 01°17' E 104°05'17 7.8
2018-Jan-10 16:22N 01°20' E 104°21'  
Track history (hours):
 
Tides and Currents Weather Stations Pressure Air Temp Water Temp Dewpoint Dewpoint Depression Visibility Wind Speed Wind Dir Waves Ship Positions

Darya Krishna

Last reported at 2018-Jan-11 10:55 UTC. Time now 2018-Jan-20 05:30 UTC.
Position N 01°17' E 103°22'.
Warning: this ship's position is 8 days out of date.

Length 180 m; draft 8.4 m.

Type: Cargo ship. MMSI: 477045400.

Date/timePositionNaut miles runAvg speedWind from/ knotsBaromVisibWave heightAir tempDewpointWater temp
2018-Jan-11 10:55N 01°17' E 103°22'511.7
2018-Jan-11 10:28N 01°14' E 103°26'611.7
2018-Jan-11 09:58N 01°12' E 103°32'510.9
2018-Jan-11 09:30N 01°11' E 103°37'510.0
2018-Jan-11 09:00N 01°10' E 103°41'5 9.7
2018-Jan-11 08:30N 01°10' E 103°46'611.8
2018-Jan-11 08:00N 01°12' E 103°52'510.2
2018-Jan-11 07:30N 01°14' E 103°56'3 3.9
2018-Jan-11 06:42N 01°17' E 103°58'0 0.0
2018-Jan-11 04:36N 01°17' E 103°58'0 0.0
2018-Jan-11 04:24N 01°17' E 103°58'0 0.1
2018-Jan-11 03:48N 01°17' E 103°58'0 0.2
2018-Jan-11 03:27N 01°17' E 103°58'0 0.2
2018-Jan-11 02:54N 01°17' E 103°58'0 0.0
2018-Jan-11 01:54N 01°17' E 103°58'0 0.0
2018-Jan-10 20:51N 01°17' E 103°58'1 1.8
2018-Jan-10 20:30N 01°16' E 103°58'0 0.5
2018-Jan-10 19:39N 01°16' E 103°58'0 3.4
2018-Jan-10 19:30N 01°16' E 103°58'3 5.6
2018-Jan-10 18:58N 01°16' E 104°01'3 7.1
2018-Jan-10 18:30N 01°17' E 104°05'17 7.8
2018-Jan-10 16:22N 01°20' E 104°21'  

Dump ship's entire track history